Time;durP1;ratioP1;P1;durP2;ratioP2;P2;SDS_P1;SDS_P2;PMS_P1;PMS_P2;Temp;Humidity;BMP_temperature;BMP_pressure;BME280_temperature;BME280_humidity;BME280_pressure;Samples;Min_cycle;Max_cycle;Signal;HPM_P1;HPM_P2
2024/01/15 00:02:11;;;;;;;35.67;33.03;;;;;;;-0.65;100.00;100550.84;5004786;28;20049;-56
2024/01/15 00:04:38;;;;;;;35.15;32.92;;;;;;;-0.77;100.00;100545.75;5002027;28;20058;-65
2024/01/15 00:07:05;;;;;;;46.75;43.28;;;;;;;-0.58;100.00;100542.31;5006475;28;20057;-56
2024/01/15 00:09:32;;;;;;;37.58;35.08;;;;;;;-0.16;100.00;100543.81;5006145;28;20053;-64
2024/01/15 00:12:01;;;;;;;33.38;31.08;;;;;;;-0.41;100.00;100542.59;5006586;28;20088;-56
2024/01/15 00:14:29;;;;;;;37.00;34.50;;;;;;;-0.87;100.00;100544.13;5005308;28;20050;-56
2024/01/15 00:16:55;;;;;;;35.55;33.22;;;;;;;-1.20;100.00;100538.31;5005336;28;20507;-64
2024/01/15 00:19:23;;;;;;;40.10;37.40;;;;;;;-1.41;100.00;100548.81;5006917;28;20054;-65
2024/01/15 00:21:50;;;;;;;32.40;30.23;;;;;;;-1.81;100.00;100556.59;5006491;28;20054;-56
2024/01/15 00:24:17;;;;;;;28.55;25.60;;;;;;;-2.14;100.00;100551.50;5006475;28;20514;-56
2024/01/15 00:26:44;;;;;;;34.33;31.92;;;;;;;-2.27;100.00;100550.03;5001375;28;20057;-65
2024/01/15 00:29:13;;;;;;;36.28;33.78;;;;;;;-2.38;100.00;100554.34;5010476;28;20069;-56
2024/01/15 00:31:39;;;;;;;30.88;28.85;;;;;;;-2.41;100.00;100559.78;5001691;28;20049;-56
2024/01/15 00:34:06;;;;;;;31.45;29.27;;;;;;;-1.96;100.00;100553.50;5005534;28;20451;-56
2024/01/15 00:36:33;;;;;;;32.78;30.58;;;;;;;-2.46;100.00;100556.75;4999518;28;20195;-56
2024/01/15 00:39:00;;;;;;;34.75;32.35;;;;;;;-2.47;100.00;100546.47;5005872;28;20432;-56
2024/01/15 00:41:28;;;;;;;30.98;28.88;;;;;;;-2.65;100.00;100541.81;5005652;28;20488;-56
2024/01/15 00:43:54;;;;;;;33.83;31.63;;;;;;;-2.88;100.00;100535.88;5005642;28;20702;-64
2024/01/15 00:46:23;;;;;;;31.02;28.92;;;;;;;-2.55;100.00;100537.50;5005287;28;20400;-65
2024/01/15 00:48:50;;;;;;;28.55;26.55;;;;;;;-2.55;100.00;100537.50;5006211;28;20574;-65
2024/01/15 00:51:16;;;;;;;32.35;30.25;;;;;;;-2.67;100.00;100533.31;5005376;28;20042;-64
2024/01/15 00:53:43;;;;;;;31.35;29.27;;;;;;;-3.07;100.00;100533.91;5005717;28;20065;-55
2024/01/15 00:56:13;;;;;;;31.17;29.10;;;;;;;-2.76;100.00;100534.88;5006162;28;20045;-55
2024/01/15 00:58:40;;;;;;;28.25;26.45;;;;;;;-2.51;100.00;100540.72;5005989;28;20554;-56
2024/01/15 01:01:07;;;;;;;29.52;27.63;;;;;;;-2.87;100.00;100526.31;5005496;28;20058;-56
2024/01/15 01:03:35;;;;;;;33.42;31.42;;;;;;;-2.78;100.00;100530.78;5004780;28;20464;-55
2024/01/15 01:06:02;;;;;;;36.00;33.90;;;;;;;-2.51;100.00;100527.69;5005270;28;20797;-64
2024/01/15 01:08:29;;;;;;;32.95;30.85;;;;;;;-2.88;100.00;100525.47;5005293;28;20445;-64
2024/01/15 01:10:57;;;;;;;28.77;26.88;;;;;;;-2.73;100.00;100526.00;5006535;28;20121;-64
2024/01/15 01:13:23;;;;;;;30.75;28.75;;;;;;;-2.47;100.00;100529.09;5005951;28;20057;-56
2024/01/15 01:15:50;;;;;;;35.33;33.13;;;;;;;-2.63;100.00;100520.88;5005223;28;20427;-56
2024/01/15 01:18:17;;;;;;;38.67;36.25;;;;;;;-2.82;100.00;100514.56;5005297;28;20523;-56
2024/01/15 01:20:45;;;;;;;32.70;30.50;;;;;;;-2.49;100.00;100522.34;5005388;28;20053;-56
2024/01/15 01:23:12;;;;;;;31.13;28.77;;;;;;;-2.57;100.00;100507.41;5004988;28;20054;-64
2024/01/15 01:25:39;;;;;;;30.17;28.27;;;;;;;-2.53;100.00;100506.19;5004917;28;20463;-65
2024/01/15 01:28:06;;;;;;;28.55;26.58;;;;;;;-2.63;100.00;100505.28;5005696;28;20045;-56
2024/01/15 01:30:33;;;;;;;27.70;25.80;;;;;;;-2.72;100.00;100501.69;5005109;28;20050;-56
2024/01/15 01:33:00;;;;;;;29.65;27.75;;;;;;;-3.25;100.00;100501.63;5002994;28;20047;-57
2024/01/15 01:35:27;;;;;;;32.60;30.55;;;;;;;-3.10;100.00;100500.38;5005069;28;20053;-56
2024/01/15 01:37:55;;;;;;;30.00;28.10;;;;;;;-2.93;100.00;100495.63;4998865;28;20054;-64
2024/01/15 01:40:22;;;;;;;26.75;24.80;;;;;;;-2.90;100.00;100497.97;5005877;28;20050;-56
2024/01/15 01:42:49;;;;;;;24.98;23.20;;;;;;;-3.21;100.00;100495.22;5005154;28;20058;-56
2024/01/15 01:45:16;;;;;;;26.95;25.05;;;;;;;-3.01;100.00;100497.03;5007853;28;20060;-56
2024/01/15 01:47:43;;;;;;;35.83;33.53;;;;;;;-2.88;100.00;100496.06;5009006;28;20058;-64
2024/01/15 01:50:10;;;;;;;32.55;30.35;;;;;;;-2.97;100.00;100492.44;5008170;28;20050;-56
2024/01/15 01:52:37;;;;;;;28.67;26.58;;;;;;;-3.02;100.00;100497.19;5007344;28;20104;-64
2024/01/15 01:55:08;;;;;;;27.00;24.75;;;;;;;-2.84;100.00;100494.88;5004647;28;20052;-56
2024/01/15 01:57:36;;;;;;;26.58;24.70;;;;;;;-2.70;100.00;100496.34;5008387;28;20128;-56
2024/01/15 02:00:04;;;;;;;27.75;25.90;;;;;;;-2.65;100.00;100502.00;5004166;28;20447;-56
2024/01/15 02:02:32;;;;;;;35.30;33.20;;;;;;;-2.86;100.00;100499.38;5008332;28;20538;-64
2024/01/15 02:04:59;;;;;;;27.40;25.50;;;;;;;-3.00;100.00;100490.06;5008829;28;20050;-64
2024/01/15 02:07:26;;;;;;;26.77;24.77;;;;;;;-2.92;100.00;100494.66;5008468;28;20054;-56
2024/01/15 02:09:53;;;;;;;31.85;29.75;;;;;;;-2.80;100.00;100497.09;5008244;28;20462;-64
2024/01/15 02:12:21;;;;;;;31.23;29.13;;;;;;;-2.13;100.00;100489.84;5008609;28;20072;-64
2024/01/15 02:14:48;;;;;;;30.80;28.70;;;;;;;-1.86;100.00;100466.69;5006590;28;20058;-56
2024/01/15 02:17:15;;;;;;;29.35;27.45;;;;;;;-2.28;100.00;100476.34;5008017;28;20053;-64
2024/01/15 02:19:42;;;;;;;30.58;28.30;;;;;;;-2.58;100.00;100469.31;5007200;28;20058;-64
2024/01/15 02:22:10;;;;;;;29.27;27.27;;;;;;;-3.19;100.00;100464.75;5008744;28;20049;-56
2024/01/15 02:24:38;;;;;;;29.58;27.67;;;;;;;-3.40;100.00;100469.06;5008085;28;20061;-56
2024/01/15 02:27:05;;;;;;;29.50;27.67;;;;;;;-3.42;100.00;100458.78;5007489;28;20054;-64
2024/01/15 02:29:32;;;;;;;31.48;29.48;;;;;;;-3.09;100.00;100462.22;5008067;28;20054;-64
2024/01/15 02:31:59;;;;;;;27.42;25.63;;;;;;;-3.13;100.00;100450.44;5007738;28;20057;-64
2024/01/15 02:34:26;;;;;;;29.85;27.85;;;;;;;-2.93;100.00;100446.25;5007966;28;20054;-64
2024/01/15 02:36:53;;;;;;;25.98;24.27;;;;;;;-2.97;100.00;100444.81;5002782;28;20042;-56
2024/01/15 02:39:20;;;;;;;25.45;23.85;;;;;;;-3.24;100.00;100440.91;5008152;28;20050;-65
2024/01/15 02:41:48;;;;;;;25.50;23.70;;;;;;;-3.19;100.00;100440.56;5007673;28;20053;-64
2024/01/15 02:44:15;;;;;;;36.65;34.45;;;;;;;-3.02;100.00;100446.03;5007861;28;20057;-56
2024/01/15 02:46:42;;;;;;;32.40;30.40;;;;;;;-3.13;100.00;100435.69;5007620;28;20462;-64
2024/01/15 02:49:08;;;;;;;27.52;25.73;;;;;;;-3.15;100.00;100432.38;5007742;28;20049;-58
2024/01/15 02:51:35;;;;;;;31.73;29.45;;;;;;;-3.00;100.00;100431.13;5007720;28;20436;-65
2024/01/15 02:54:02;;;;;;;27.80;26.00;;;;;;;-3.58;100.00;100424.59;5007999;28;20058;-64
2024/01/15 02:56:29;;;;;;;27.52;25.73;;;;;;;-3.42;100.00;100427.63;5007735;28;20637;-64
2024/01/15 02:58:57;;;;;;;31.75;29.85;;;;;;;-3.36;100.00;100429.75;5007696;28;20057;-56
2024/01/15 03:01:24;;;;;;;27.25;25.55;;;;;;;-2.95;100.00;100432.53;5007314;28;20423;-56
2024/01/15 03:03:51;;;;;;;27.48;25.77;;;;;;;-3.01;100.00;100421.69;5007996;28;20054;-56
2024/01/15 03:06:17;;;;;;;30.27;28.45;;;;;;;-3.02;100.00;100419.22;5007778;28;20049;-56
2024/01/15 03:08:44;;;;;;;30.30;28.20;;;;;;;-2.90;100.00;100423.41;5007585;28;20522;-56
2024/01/15 03:11:10;;;;;;;27.48;25.77;;;;;;;-2.71;100.00;100414.91;5007752;28;20464;-56
2024/01/15 03:13:38;;;;;;;30.15;28.45;;;;;;;-2.74;100.00;100416.94;5008515;28;20516;-56
2024/01/15 03:16:07;;;;;;;28.52;26.92;;;;;;;-2.66;100.00;100409.31;5007099;28;20054;-56
2024/01/15 03:18:33;;;;;;;37.13;35.22;;;;;;;-3.22;100.00;100413.88;5005621;28;20504;-64
2024/01/15 03:21:02;;;;;;;31.30;29.67;;;;;;;-3.08;100.00;100409.34;5007458;28;20682;-56
2024/01/15 03:23:28;;;;;;;27.27;25.67;;;;;;;-3.71;100.00;100404.00;5006848;28;20423;-64
2024/01/15 03:25:55;;;;;;;28.75;27.15;;;;;;;-3.47;100.00;100409.81;5006696;28;20060;-64
2024/01/15 03:28:22;;;;;;;29.55;27.95;;;;;;;-3.02;100.00;100407.06;5006924;28;20100;-64
2024/01/15 03:30:49;;;;;;;24.17;22.67;;;;;;;-3.21;100.00;100401.69;5007151;28;20057;-65
2024/01/15 03:33:17;;;;;;;27.45;25.75;;;;;;;-3.38;100.00;100403.06;5005536;28;20057;-56
2024/01/15 03:35:44;;;;;;;27.27;25.58;;;;;;;-3.52;100.00;100404.16;5003232;28;20065;-56
2024/01/15 03:38:11;;;;;;;33.88;31.98;;;;;;;-3.93;100.00;100403.09;5001139;28;20434;-64
2024/01/15 03:40:38;;;;;;;33.72;31.60;;;;;;;-3.62;100.00;100405.03;5003036;28;20067;-64
2024/01/15 03:43:05;;;;;;;29.52;27.73;;;;;;;-3.24;100.00;100404.53;5006721;28;20053;-56
2024/01/15 03:45:32;;;;;;;25.80;24.00;;;;;;;-3.15;100.00;100401.19;5006842;28;20058;-56
2024/01/15 03:47:58;;;;;;;27.35;25.45;;;;;;;-3.36;100.00;100402.94;5006157;28;20451;-64
2024/01/15 03:50:27;;;;;;;31.55;29.55;;;;;;;-2.96;100.00;100397.13;5006370;28;20049;-64
2024/01/15 03:52:53;;;;;;;29.15;27.35;;;;;;;-3.49;100.00;100400.50;5006410;28;20443;-56
2024/01/15 03:55:20;;;;;;;26.45;24.75;;;;;;;-3.30;100.00;100395.50;5005948;28;20045;-56
2024/01/15 03:57:47;;;;;;;25.83;24.23;;;;;;;-3.46;100.00;100387.28;5006474;28;20508;-64
2024/01/15 04:00:17;;;;;;;24.55;22.95;;;;;;;-3.18;100.00;100383.25;5003239;28;20054;-56
2024/01/15 04:02:44;;;;;;;26.67;24.88;;;;;;;-3.28;100.00;100385.78;4999335;28;20052;-64
2024/01/15 04:05:12;;;;;;;34.30;32.30;;;;;;;-3.57;100.00;100388.16;5006225;28;20623;-64
2024/01/15 04:07:43;;;;;;;28.88;27.08;;;;;;;-3.92;100.00;100378.78;5005925;28;20728;-56
2024/01/15 04:10:10;;;;;;;24.90;23.10;;;;;;;-3.70;100.00;100387.47;5006878;28;20065;-57
2024/01/15 04:12:37;;;;;;;26.70;24.88;;;;;;;-3.90;100.00;100391.66;5006957;28;20414;-64
2024/01/15 04:15:05;;;;;;;24.55;22.75;;;;;;;-3.39;100.00;100387.59;5006332;28;20108;-65
2024/01/15 04:17:31;;;;;;;27.02;25.13;;;;;;;-3.36;100.00;100385.59;5005851;28;20492;-65
2024/01/15 04:19:58;;;;;;;27.90;26.02;;;;;;;-3.46;100.00;100387.28;5005848;28;20057;-64
2024/01/15 04:22:26;;;;;;;25.58;23.88;;;;;;;-3.63;100.00;100386.03;5005140;28;20050;-56
2024/01/15 04:24:54;;;;;;;24.55;22.85;;;;;;;-2.68;100.00;100390.44;5005636;28;20049;-65
2024/01/15 04:27:21;;;;;;;24.90;23.20;;;;;;;-3.30;100.00;100399.84;5005931;28;20507;-65
2024/01/15 04:29:48;;;;;;;26.05;24.15;;;;;;;-3.04;100.00;100402.94;5006332;28;20057;-64
2024/01/15 04:32:15;;;;;;;26.40;24.70;;;;;;;-1.70;100.00;100395.03;5005749;28;20049;-64
2024/01/15 04:34:42;;;;;;;30.00;28.20;;;;;;;-2.04;100.00;100394.56;5005803;28;20046;-56
2024/01/15 04:37:09;;;;;;;30.38;28.48;;;;;;;-1.96;100.00;100392.13;5004905;28;20053;-56
2024/01/15 04:39:35;;;;;;;27.10;25.50;;;;;;;-2.27;100.00;100396.50;5002991;28;20624;-64
2024/01/15 04:42:04;;;;;;;24.83;22.40;;;;;;;-2.24;100.00;100396.25;5005994;28;20050;-57
2024/01/15 04:44:31;;;;;;;22.58;20.40;;;;;;;-2.49;100.00;100395.72;4997550;28;20439;-56
2024/01/15 04:46:58;;;;;;;23.10;20.70;;;;;;;-2.35;100.00;100395.41;5003722;28;20050;-56
2024/01/15 04:49:27;;;;;;;38.97;36.42;;;;;;;-2.15;100.00;100401.50;5004528;28;20427;-56
2024/01/15 04:51:53;;;;;;;38.42;36.22;;;;;;;-1.79;100.00;100390.63;5002849;28;20090;-56
2024/01/15 04:54:20;;;;;;;33.15;31.17;;;;;;;-3.10;100.00;100390.44;5005473;28;20048;-56
2024/01/15 04:56:47;;;;;;;27.40;25.25;;;;;;;-3.44;100.00;100387.16;5005173;28;20058;-56
2024/01/15 04:59:16;;;;;;;36.50;34.40;;;;;;;-3.50;100.00;100393.69;5004057;28;20135;-64
2024/01/15 05:01:44;;;;;;;33.10;30.35;;;;;;;-3.94;100.00;100380.66;5005123;28;20053;-65
2024/01/15 05:04:11;;;;;;;28.63;25.90;;;;;;;-4.04;100.00;100386.72;5004576;28;20065;-65
2024/01/15 05:06:38;;;;;;;40.58;36.63;;;;;;;-2.13;100.00;100396.16;5003001;28;20061;-64
2024/01/15 05:09:05;;;;;;;52.17;46.60;;;;;;;-3.38;100.00;100390.09;5000654;28;20504;-65
2024/01/15 05:11:32;;;;;;;32.00;29.10;;;;;;;-3.28;100.00;100382.38;4999777;28;20077;-65
2024/01/15 05:13:58;;;;;;;34.80;31.88;;;;;;;-3.33;100.00;100390.56;5004775;28;20058;-56
2024/01/15 05:16:27;;;;;;;33.90;31.10;;;;;;;-3.95;100.00;100391.19;5004329;28;20050;-56
2024/01/15 05:18:53;;;;;;;35.40;33.20;;;;;;;-4.05;100.00;100390.25;5005502;28;20065;-64
2024/01/15 05:21:20;;;;;;;28.17;26.38;;;;;;;-3.63;100.00;100395.59;5008054;28;20049;-65
2024/01/15 05:23:47;;;;;;;23.13;21.42;;;;;;;-3.57;100.00;100389.91;5007446;28;20537;-65
2024/01/15 05:26:14;;;;;;;23.80;22.10;;;;;;;-3.48;100.00;100390.00;5007914;28;20435;-65
2024/01/15 05:28:44;;;;;;;24.65;23.05;;;;;;;-3.90;100.00;100386.47;5003895;28;20148;-56
2024/01/15 05:31:11;;;;;;;23.95;22.30;;;;;;;-4.20;100.00;100393.09;5008975;28;20056;-56
2024/01/15 05:33:40;;;;;;;21.60;20.20;;;;;;;-4.56;100.00;100388.97;5008995;28;20064;-56
2024/01/15 05:36:07;;;;;;;23.33;21.83;;;;;;;-4.53;100.00;100378.34;5008557;28;20050;-56
2024/01/15 05:38:34;;;;;;;23.00;21.60;;;;;;;-4.34;100.00;100372.56;5000734;28;20064;-56
2024/01/15 05:41:01;;;;;;;20.35;19.15;;;;;;;-4.43;100.00;100363.72;5001154;28;20583;-64
2024/01/15 05:43:28;;;;;;;21.80;20.40;;;;;;;-4.73;100.00;100364.31;5006817;28;20065;-64
2024/01/15 05:45:54;;;;;;;20.73;19.33;;;;;;;-4.88;100.00;100362.88;4960620;28;1332470;-55
2024/01/15 05:48:21;;;;;;;21.35;19.75;;;;;;;-4.80;100.00;100357.13;5010100;28;20042;-56
2024/01/15 05:50:50;;;;;;;22.73;21.23;;;;;;;-4.57;100.00;100358.78;5001346;28;20112;-65
2024/01/15 05:53:16;;;;;;;19.77;18.63;;;;;;;-4.45;100.00;100351.81;5005773;28;20048;-55
2024/01/15 05:55:43;;;;;;;20.75;19.35;;;;;;;-4.56;100.00;100351.84;5009747;28;20606;-56
2024/01/15 05:58:14;;;;;;;20.65;19.25;;;;;;;-4.62;100.00;100348.78;5009738;28;20045;-56
2024/01/15 06:00:44;;;;;;;21.85;20.45;;;;;;;-4.61;100.00;100350.41;5008346;28;20086;-56
2024/01/15 06:03:12;;;;;;;22.88;20.95;;;;;;;-4.45;100.00;100349.22;4999780;28;20050;-56
2024/01/15 06:05:39;;;;;;;19.80;18.50;;;;;;;-4.60;100.00;100340.88;5008642;28;20045;-56
2024/01/15 06:08:07;;;;;;;21.23;19.25;;;;;;;-4.79;100.00;100351.00;5007755;28;20053;-56
2024/01/15 06:10:34;;;;;;;19.95;18.85;;;;;;;-4.65;100.00;100351.59;5007965;28;20069;-55
2024/01/15 06:13:01;;;;;;;20.38;19.17;;;;;;;-4.23;100.00;100346.66;5007441;28;20447;-56
2024/01/15 06:15:28;;;;;;;19.65;18.45;;;;;;;-4.12;100.00;100348.38;5005027;28;20049;-56
2024/01/15 06:17:55;;;;;;;19.40;18.20;;;;;;;-3.67;100.00;100350.06;5007232;28;20057;-56
2024/01/15 06:20:22;;;;;;;20.05;18.85;;;;;;;-3.29;100.00;100344.38;5008194;28;20499;-64
2024/01/15 06:22:48;;;;;;;22.35;20.95;;;;;;;-3.37;100.00;100337.19;4998067;28;20050;-65
2024/01/15 06:25:19;;;;;;;22.50;21.00;;;;;;;-2.98;100.00;100347.03;5005608;28;20929;-65
2024/01/15 06:27:46;;;;;;;21.50;20.10;;;;;;;-2.82;100.00;100349.97;5008578;28;20062;-65
2024/01/15 06:30:14;;;;;;;21.40;20.10;;;;;;;-2.38;100.00;100354.03;5001021;28;20054;-65
2024/01/15 06:32:41;;;;;;;23.73;22.33;;;;;;;-2.59;100.00;100353.25;5002266;28;20455;-56
2024/01/15 06:35:10;;;;;;;26.95;25.13;;;;;;;-2.13;100.00;100350.13;5007843;28;20053;-56
2024/01/15 06:37:37;;;;;;;22.20;20.80;;;;;;;-1.63;100.00;100357.09;5004275;28;20049;-56
2024/01/15 06:40:05;;;;;;;22.27;20.88;;;;;;;-1.11;100.00;100351.59;5003167;28;20058;-56
2024/01/15 06:42:33;;;;;;;23.20;21.70;;;;;;;-1.19;100.00;100360.09;5003565;28;20502;-64
2024/01/15 06:45:00;;;;;;;24.92;23.25;;;;;;;-0.30;100.00;100359.75;5002289;28;20470;-64
2024/01/15 06:47:27;;;;;;;27.42;25.73;;;;;;;-1.60;100.00;100351.63;5007796;28;20050;-66
2024/01/15 06:49:54;;;;;;;28.80;26.67;;;;;;;-0.98;100.00;100355.56;5007652;28;20053;-65
2024/01/15 06:52:21;;;;;;;26.38;24.77;;;;;;;-0.70;100.00;100347.81;5007998;28;20077;-65
2024/01/15 06:54:48;;;;;;;30.50;27.67;;;;;;;-0.53;100.00;100354.88;5004209;28;20061;-65
2024/01/15 06:57:15;;;;;;;33.47;31.48;;;;;;;-0.11;100.00;100351.81;5006390;28;20058;-65
2024/01/15 06:59:43;;;;;;;32.88;30.52;;;;;;;-0.22;100.00;100345.97;5005162;28;20088;-65
2024/01/15 07:02:10;;;;;;;28.92;26.83;;;;;;;0.29;100.00;100348.00;5005309;28;20750;-57
2024/01/15 07:04:37;;;;;;;31.73;29.38;;;;;;;0.75;100.00;100342.69;5005439;28;20054;-65
2024/01/15 07:07:04;;;;;;;38.97;29.50;;;;;;;1.15;100.00;100342.19;5004751;28;20053;-66
2024/01/15 07:09:31;;;;;;;29.42;27.52;;;;;;;1.53;100.00;100342.72;5007605;28;20065;-66
2024/01/15 07:11:59;;;;;;;36.38;34.08;;;;;;;1.96;100.00;100335.69;5004889;28;20054;-65
2024/01/15 07:14:26;;;;;;;32.13;30.23;;;;;;;2.27;100.00;100342.00;5007239;28;20054;-57
2024/01/15 07:16:54;;;;;;;32.22;30.33;;;;;;;2.20;100.00;100340.16;5006642;28;20058;-58
2024/01/15 07:19:21;;;;;;;37.83;35.30;;;;;;;2.34;100.00;100341.38;5008233;28;20050;-58
2024/01/15 07:21:48;;;;;;;40.00;37.60;;;;;;;2.61;100.00;100333.19;5006597;28;20431;-57
2024/01/15 07:24:15;;;;;;;40.47;37.88;;;;;;;2.95;100.00;100333.00;5008394;28;20726;-57
2024/01/15 07:26:42;;;;;;;37.35;35.15;;;;;;;3.24;100.00;100328.19;5007803;28;20054;-57
2024/01/15 07:29:09;;;;;;;36.03;33.72;;;;;;;3.59;100.00;100327.78;5008019;28;20050;-57
2024/01/15 07:31:35;;;;;;;31.85;29.92;;;;;;;3.96;100.00;100328.13;5008471;28;20058;-57
2024/01/15 07:34:04;;;;;;;36.20;34.20;;;;;;;3.22;100.00;100329.19;5007709;28;20571;-66
2024/01/15 07:36:30;;;;;;;42.05;39.45;;;;;;;3.94;100.00;100327.50;5005114;28;20068;-57
2024/01/15 07:38:58;;;;;;;45.50;42.63;;;;;;;4.21;100.00;100336.72;4993446;28;20057;-57
2024/01/15 07:41:25;;;;;;;50.17;46.97;;;;;;;4.23;100.00;100330.25;5006743;28;20077;-57
2024/01/15 07:43:52;;;;;;;43.42;40.47;;;;;;;4.28;100.00;100327.94;5007369;28;20053;-65
2024/01/15 07:46:19;;;;;;;39.22;36.75;;;;;;;5.09;100.00;100327.47;5008523;28;20054;-57
2024/01/15 07:48:45;;;;;;;43.65;41.10;;;;;;;5.47;100.00;100320.31;5007328;28;20515;-57
2024/01/15 07:51:14;;;;;;;45.08;42.25;;;;;;;5.24;100.00;100323.84;5007085;28;20053;-57
2024/01/15 07:53:41;;;;;;;48.38;45.17;;;;;;;5.53;100.00;100309.03;5007152;28;20408;-57
2024/01/15 07:56:08;;;;;;;47.88;45.15;;;;;;;4.77;100.00;100324.94;5007083;28;20061;-66
2024/01/15 07:58:34;;;;;;;39.47;37.05;;;;;;;5.66;100.00;100318.94;5006362;28;20062;-66
2024/01/15 08:01:01;;;;;;;44.67;41.90;;;;;;;6.41;100.00;100323.03;5002860;28;20069;-57
2024/01/15 08:03:28;;;;;;;59.72;56.13;;;;;;;6.13;100.00;100321.16;5002212;28;20054;-57
2024/01/15 08:05:57;;;;;;;59.50;55.63;;;;;;;6.37;100.00;100314.69;5003723;28;20054;-57
2024/01/15 08:08:25;;;;;;;53.28;50.05;;;;;;;6.87;100.00;100322.66;5001904;28;20057;-57
2024/01/15 08:10:53;;;;;;;55.67;52.47;;;;;;;7.36;98.35;100329.72;5001577;28;20520;-57
2024/01/15 08:13:20;;;;;;;57.30;53.90;;;;;;;7.70;91.38;100320.13;5004566;28;20054;-57
2024/01/15 08:15:47;;;;;;;48.00;45.15;;;;;;;8.02;90.34;100330.03;5004379;28;20054;-66
2024/01/15 08:18:14;;;;;;;52.80;49.55;;;;;;;7.79;80.50;100329.53;5006720;28;20689;-57
2024/01/15 08:20:43;;;;;;;63.63;60.03;;;;;;;8.08;80.14;100317.00;5005095;28;20085;-57
2024/01/15 08:23:10;;;;;;;57.70;54.40;;;;;;;8.52;78.83;100321.00;5005241;28;20100;-57
2024/01/15 08:25:38;;;;;;;54.13;50.92;;;;;;;8.18;75.11;100314.81;4989056;28;20089;-57
2024/01/15 08:28:06;;;;;;;38.80;36.33;;;;;;;8.44;73.28;100317.53;5005229;28;20765;-56
2024/01/15 08:30:33;;;;;;;44.40;41.70;;;;;;;8.62;69.37;100311.66;5005134;28;20528;-64
2024/01/15 08:33:00;;;;;;;60.85;57.20;;;;;;;8.92;67.22;100308.59;5005921;28;20459;-65
2024/01/15 08:35:27;;;;;;;61.45;57.75;;;;;;;8.71;67.09;100304.31;5006824;28;20054;-66
2024/01/15 08:37:54;;;;;;;60.55;56.85;;;;;;;8.40;68.58;100302.25;5005597;28;20046;-65
2024/01/15 08:40:21;;;;;;;60.15;56.75;;;;;;;8.81;69.85;100310.03;5001583;28;20053;-57
2024/01/15 08:42:49;;;;;;;47.58;44.88;;;;;;;8.85;67.20;100308.59;5005894;28;20057;-65
2024/01/15 08:45:19;;;;;;;43.38;40.67;;;;;;;8.92;67.39;100301.44;5006583;28;20104;-56
2024/01/15 08:47:46;;;;;;;59.47;56.03;;;;;;;9.20;64.95;100303.06;5004414;28;20601;-65
2024/01/15 08:50:14;;;;;;;61.90;58.20;;;;;;;9.90;61.72;100289.97;5001813;28;20061;-65
2024/01/15 08:52:42;;;;;;;62.80;59.20;;;;;;;9.45;61.16;100297.09;4998030;28;20064;-65
2024/01/15 08:55:12;;;;;;;54.25;51.05;;;;;;;9.57;60.62;100282.16;5004971;28;20056;-56
2024/01/15 08:57:39;;;;;;;55.50;52.25;;;;;;;9.32;62.33;100279.38;5005772;28;20053;-65
2024/01/15 09:00:11;;;;;;;51.78;48.88;;;;;;;9.66;60.84;100277.44;5005432;28;20087;-66
2024/01/15 09:02:38;;;;;;;59.22;55.85;;;;;;;9.88;59.36;100254.06;5005425;28;20539;-57
2024/01/15 09:05:05;;;;;;;47.00;43.72;;;;;;;9.77;58.47;100244.94;5006439;28;20061;-56
2024/01/15 09:07:32;;;;;;;49.00;46.20;;;;;;;10.18;56.24;100241.03;5006086;28;20086;-65
2024/01/15 09:09:59;;;;;;;50.88;47.88;;;;;;;10.11;54.98;100227.81;5004623;28;20566;-65
2024/01/15 09:12:26;;;;;;;56.88;53.38;;;;;;;10.37;54.71;100226.03;5005291;28;20064;-66
2024/01/15 09:14:53;;;;;;;49.10;46.17;;;;;;;10.41;53.07;100227.19;5002882;28;20052;-56
2024/01/15 09:17:23;;;;;;;59.80;56.30;;;;;;;10.95;51.69;100228.34;5004817;28;20058;-66
2024/01/15 09:19:50;;;;;;;50.58;47.78;;;;;;;10.85;51.03;100214.78;5006256;28;20057;-66
2024/01/15 09:22:18;;;;;;;55.03;51.83;;;;;;;10.83;50.72;100206.19;5005529;28;20132;-65
2024/01/15 09:24:45;;;;;;;57.15;53.70;;;;;;;10.28;51.52;100201.59;5005628;28;20137;-57
2024/01/15 09:27:12;;;;;;;56.22;52.92;;;;;;;9.95;51.89;100188.53;5005822;28;20496;-65
2024/01/15 09:29:40;;;;;;;58.15;54.85;;;;;;;10.05;53.89;100195.00;5006160;28;20451;-58
2024/01/15 09:32:08;;;;;;;56.28;53.00;;;;;;;9.95;54.10;100184.03;5005733;28;20056;-66
2024/01/15 09:34:36;;;;;;;52.35;49.35;;;;;;;9.63;54.44;100177.91;5005802;28;20155;-56
2024/01/15 09:37:03;;;;;;;51.58;48.53;;;;;;;9.24;59.44;100182.38;5005393;28;20054;-56
2024/01/15 09:39:31;;;;;;;61.90;58.10;;;;;;;9.83;54.33;100172.47;5001308;28;20637;-66
2024/01/15 09:41:59;;;;;;;59.70;56.10;;;;;;;9.73;53.14;100164.19;5005025;28;20054;-56
2024/01/15 09:44:28;;;;;;;66.60;62.67;;;;;;;9.48;62.98;100157.00;5005592;28;20420;-65
2024/01/15 09:46:56;;;;;;;50.30;47.40;;;;;;;9.99;54.36;100161.38;5005647;28;20053;-56
2024/01/15 09:49:23;;;;;;;46.35;43.65;;;;;;;9.74;55.04;100164.00;5001752;28;20054;-57
2024/01/15 09:51:51;;;;;;;48.78;44.88;;;;;;;8.82;57.01;100149.31;5003322;28;20837;-56
2024/01/15 09:54:18;;;;;;;35.75;33.55;;;;;;;8.77;60.68;100152.56;5005832;28;20054;-57
2024/01/15 09:56:46;;;;;;;36.17;34.05;;;;;;;8.74;59.43;100150.31;5002944;28;20054;-56
2024/01/15 09:59:16;;;;;;;56.60;53.40;;;;;;;8.85;59.96;100144.41;5005621;28;20077;-56
2024/01/15 10:01:44;;;;;;;64.40;60.80;;;;;;;9.28;61.37;100151.78;5005305;28;20084;-57
2024/01/15 10:04:13;;;;;;;65.68;61.88;;;;;;;9.29;59.97;100140.16;5004904;28;20428;-65
2024/01/15 10:06:46;;;;;;;67.93;64.03;;;;;;;9.69;61.16;100144.44;5006732;28;20054;-65
2024/01/15 10:09:15;;;;;;;56.28;52.90;;;;;;;9.72;58.06;100141.34;5006439;28;20081;-65
2024/01/15 10:11:42;;;;;;;47.38;44.58;;;;;;;9.91;61.45;100144.88;5005645;28;20115;-66
2024/01/15 10:14:12;;;;;;;50.20;47.25;;;;;;;10.27;56.69;100141.56;5004181;28;20049;-56
2024/01/15 10:16:41;;;;;;;59.63;56.22;;;;;;;10.11;58.60;100134.94;5003387;28;20180;-66
2024/01/15 10:19:10;;;;;;;60.05;56.55;;;;;;;10.45;59.36;100131.00;5008925;28;21134;-66
2024/01/15 10:21:38;;;;;;;57.90;54.50;;;;;;;10.16;57.05;100123.66;5002713;28;20717;-66
2024/01/15 10:24:05;;;;;;;66.18;62.38;;;;;;;10.44;56.01;100121.41;5000781;28;20065;-66
2024/01/15 10:26:34;;;;;;;61.97;58.38;;;;;;;10.75;55.60;100111.69;5006560;28;20706;-56
2024/01/15 10:29:01;;;;;;;47.38;44.40;;;;;;;10.75;56.67;100101.88;5000473;28;20530;-57
2024/01/15 10:31:28;;;;;;;47.55;44.58;;;;;;;11.79;52.05;100108.88;5000922;28;20054;-56
2024/01/15 10:33:56;;;;;;;63.35;59.25;;;;;;;11.72;52.05;100108.19;5005667;28;20053;-57
2024/01/15 10:36:23;;;;;;;59.25;55.55;;;;;;;11.39;50.63;100096.97;5000249;28;20496;-57
2024/01/15 10:38:50;;;;;;;59.83;56.13;;;;;;;11.11;50.65;100067.53;5002410;28;20055;-57
2024/01/15 10:41:17;;;;;;;65.90;62.00;;;;;;;10.48;52.33;100064.16;5007555;28;20045;-56
2024/01/15 10:43:45;;;;;;;64.63;60.72;;;;;;;10.97;51.40;100056.25;5001942;28;20058;-57
2024/01/15 10:46:13;;;;;;;58.33;54.83;;;;;;;11.15;52.91;100053.53;5003714;28;20053;-56
2024/01/15 10:48:40;;;;;;;48.35;45.45;;;;;;;12.09;51.79;100061.72;5005753;28;20064;-57
2024/01/15 10:51:10;;;;;;;59.97;56.58;;;;;;;12.73;49.31;100037.78;5008589;28;20617;-57
2024/01/15 10:53:41;;;;;;;75.93;71.32;;;;;;;12.84;48.06;100044.94;5003524;28;20060;-58
2024/01/15 10:56:08;;;;;;;79.00;74.20;;;;;;;12.85;46.93;100040.41;5006244;28;20064;-58
2024/01/15 10:58:35;;;;;;;79.10;74.30;;;;;;;13.29;46.30;100038.06;5003533;28;20073;-58
2024/01/15 11:01:05;;;;;;;68.03;64.32;;;;;;;13.42;44.73;100020.94;5006995;28;20049;-58
2024/01/15 11:03:32;;;;;;;44.90;41.67;;;;;;;14.09;43.98;100018.22;5006614;28;20062;-58
2024/01/15 11:06:03;;;;;;;64.80;60.95;;;;;;;14.32;44.11;100013.72;5002639;28;20054;-58